CheckWX is a tool to help pilots better visualize weather data.  It is not intended as a substitute for an official pre-flight weather briefing.

06:08:00 UTC

CYCG METAR
Castlegar / West Kootenay Regional Airport
Castlegar, Canada
Current

5 hours ago

CYCG 210100Z 02004KT 340V040 15SM FEW040 05/M02 A3018 RMK SC1 SC TR LAST STFD OBS/NEXT 211400Z SLP234
Observed
Nov-21 @ 01:00 UTC
Wind
  • 020° at 4 KTS
Visibility
15 SM
Flight Rules
VFR
Cloud Levels
  • Few at 4,000' AGL
Temperature
C / 41°F
Dewpoint
-2°C / 28°F
Humidity
61%
Altimeter
30.18" Hg
Pressure
1022.02 hPa
Previous

6 hours ago

CYCG 210000Z 03005KT 340V060 15SM FEW040 05/M03 A3018 RMK SC1 SC TR SLP235
Observed
Nov-21 @ 00:00 UTC
Wind
  • 030° at 5 KTS
Visibility
15 SM
Flight Rules
VFR
Cloud Levels
  • Few at 4,000' AGL
Temperature
C / 41°F
Dewpoint
-3°C / 27°F
Humidity
57%
Altimeter
30.18" Hg
Pressure
1022.02 hPa
Previous

7 hours ago

CYCG 202300Z 36009KT 330V030 15SM FEW040 FEW080 06/M02 A3017 RMK SC1AC1 SC TR AC TR SLP231
Observed
Nov-20 @ 23:00 UTC
Wind
  • 360° at 9 KTS
Visibility
15 SM
Flight Rules
VFR
Cloud Levels
  • Few at 4,000' AGL
  • Few at 8,000' AGL
Temperature
C / 43°F
Dewpoint
-2°C / 28°F
Humidity
57%
Altimeter
30.17" Hg
Pressure
1021.72 hPa